sensor_id;sensor_type;location;lat;lon;timestamp;temperature;humidity
9083;DHT22;4577;48.704;9.000;2024-02-28T00:03:04;7.90;95.90
9083;DHT22;4577;48.704;9.000;2024-02-28T00:07:55;7.90;95.10
9083;DHT22;4577;48.704;9.000;2024-02-28T00:10:21;8.00;94.90
9083;DHT22;4577;48.704;9.000;2024-02-28T00:15:13;8.20;94.50
9083;DHT22;4577;48.704;9.000;2024-02-28T00:17:39;8.10;95.50
9083;DHT22;4577;48.704;9.000;2024-02-28T00:20:09;8.00;94.60
9083;DHT22;4577;48.704;9.000;2024-02-28T00:22:36;8.20;94.50
9083;DHT22;4577;48.704;9.000;2024-02-28T00:25:04;8.70;96.90
9083;DHT22;4577;48.704;9.000;2024-02-28T00:27:32;7.50;96.20
9083;DHT22;4577;48.704;9.000;2024-02-28T00:34:50;8.00;95.60
9083;DHT22;4577;48.704;9.000;2024-02-28T00:37:16;7.90;96.50
9083;DHT22;4577;48.704;9.000;2024-02-28T00:39:44;7.80;94.80
9083;DHT22;4577;48.704;9.000;2024-02-28T00:42:10;7.80;95.90
9083;DHT22;4577;48.704;9.000;2024-02-28T00:47:01;7.50;96.00
9083;DHT22;4577;48.704;9.000;2024-02-28T00:49:27;7.80;96.30
9083;DHT22;4577;48.704;9.000;2024-02-28T00:51:53;7.80;95.60
9083;DHT22;4577;48.704;9.000;2024-02-28T00:54:18;7.70;96.20
9083;DHT22;4577;48.704;9.000;2024-02-28T00:56:44;7.90;96.40
9083;DHT22;4577;48.704;9.000;2024-02-28T01:01:38;7.20;97.70
9083;DHT22;4577;48.704;9.000;2024-02-28T01:06:30;7.50;99.70
9083;DHT22;4577;48.704;9.000;2024-02-28T01:08:55;7.10;99.40
9083;DHT22;4577;48.704;9.000;2024-02-28T01:13:47;7.20;97.80
9083;DHT22;4577;48.704;9.000;2024-02-28T01:16:12;6.90;99.00
9083;DHT22;4577;48.704;9.000;2024-02-28T01:18:38;7.10;98.40
9083;DHT22;4577;48.704;9.000;2024-02-28T01:21:04;7.20;98.60
9083;DHT22;4577;48.704;9.000;2024-02-28T01:23:30;7.10;99.10
9083;DHT22;4577;48.704;9.000;2024-02-28T01:25:55;7.40;99.90
9083;DHT22;4577;48.704;9.000;2024-02-28T01:28:21;7.20;99.90
9083;DHT22;4577;48.704;9.000;2024-02-28T01:33:13;7.10;99.60
9083;DHT22;4577;48.704;9.000;2024-02-28T01:35:39;7.30;98.60
9083;DHT22;4577;48.704;9.000;2024-02-28T01:38:05;7.10;98.70
9083;DHT22;4577;48.704;9.000;2024-02-28T01:43:11;7.60;99.10
9083;DHT22;4577;48.704;9.000;2024-02-28T01:45:37;7.00;99.90
9083;DHT22;4577;48.704;9.000;2024-02-28T01:48:03;7.20;99.90
9083;DHT22;4577;48.704;9.000;2024-02-28T01:50:33;7.00;99.30
9083;DHT22;4577;48.704;9.000;2024-02-28T01:52:59;6.90;99.30
9083;DHT22;4577;48.704;9.000;2024-02-28T01:55:25;6.90;98.70
9083;DHT22;4577;48.704;9.000;2024-02-28T01:57:52;7.00;98.80
9083;DHT22;4577;48.704;9.000;2024-02-28T02:00:19;7.10;98.60
9083;DHT22;4577;48.704;9.000;2024-02-28T02:02:47;7.00;98.70
9083;DHT22;4577;48.704;9.000;2024-02-28T02:05:13;7.10;99.30
9083;DHT22;4577;48.704;9.000;2024-02-28T02:07:41;7.00;99.90
9083;DHT22;4577;48.704;9.000;2024-02-28T02:10:08;7.10;98.90
9083;DHT22;4577;48.704;9.000;2024-02-28T02:12:36;7.20;99.90
9083;DHT22;4577;48.704;9.000;2024-02-28T02:15:02;6.80;99.90
9083;DHT22;4577;48.704;9.000;2024-02-28T02:19:53;6.90;99.90
9083;DHT22;4577;48.704;9.000;2024-02-28T02:22:20;6.70;99.90
9083;DHT22;4577;48.704;9.000;2024-02-28T02:24:46;6.70;99.90
9083;DHT22;4577;48.704;9.000;2024-02-28T02:29:38;6.70;99.90
9083;DHT22;4577;48.704;9.000;2024-02-28T02:32:04;6.60;99.90
9083;DHT22;4577;48.704;9.000;2024-02-28T02:34:30;6.70;99.90
9083;DHT22;4577;48.704;9.000;2024-02-28T02:39:21;6.90;99.90
9083;DHT22;4577;48.704;9.000;2024-02-28T02:41:47;6.90;99.90
9083;DHT22;4577;48.704;9.000;2024-02-28T02:44:13;6.80;99.90
9083;DHT22;4577;48.704;9.000;2024-02-28T02:46:38;6.90;99.90
9083;DHT22;4577;48.704;9.000;2024-02-28T02:49:04;7.10;99.90
9083;DHT22;4577;48.704;9.000;2024-02-28T02:51:30;6.80;99.90
9083;DHT22;4577;48.704;9.000;2024-02-28T02:53:56;6.80;99.90
9083;DHT22;4577;48.704;9.000;2024-02-28T02:58:47;6.90;99.90
9083;DHT22;4577;48.704;9.000;2024-02-28T03:01:13;7.10;99.90
9083;DHT22;4577;48.704;9.000;2024-02-28T03:03:39;6.90;99.30
9083;DHT22;4577;48.704;9.000;2024-02-28T03:06:04;6.90;99.90
9083;DHT22;4577;48.704;9.000;2024-02-28T03:08:31;6.90;99.90
9083;DHT22;4577;48.704;9.000;2024-02-28T03:10:56;6.80;99.90
9083;DHT22;4577;48.704;9.000;2024-02-28T03:13:22;6.80;99.90
9083;DHT22;4577;48.704;9.000;2024-02-28T03:15:48;7.20;99.90
9083;DHT22;4577;48.704;9.000;2024-02-28T03:18:14;7.00;99.20
9083;DHT22;4577;48.704;9.000;2024-02-28T03:20:39;4.80;99.90
9083;DHT22;4577;48.704;9.000;2024-02-28T03:23:05;7.10;99.90
9083;DHT22;4577;48.704;9.000;2024-02-28T03:25:32;7.30;99.00
9083;DHT22;4577;48.704;9.000;2024-02-28T03:30:25;7.20;98.90
9083;DHT22;4577;48.704;9.000;2024-02-28T03:32:51;7.60;99.20
9083;DHT22;4577;48.704;9.000;2024-02-28T03:35:17;7.00;99.60
9083;DHT22;4577;48.704;9.000;2024-02-28T03:37:42;7.20;98.40
9083;DHT22;4577;48.704;9.000;2024-02-28T03:40:08;6.80;99.80
9083;DHT22;4577;48.704;9.000;2024-02-28T03:42:34;7.10;99.00
9083;DHT22;4577;48.704;9.000;2024-02-28T03:44:59;7.00;99.90
9083;DHT22;4577;48.704;9.000;2024-02-28T03:47:25;7.20;99.90
9083;DHT22;4577;48.704;9.000;2024-02-28T03:49:51;7.40;98.90
9083;DHT22;4577;48.704;9.000;2024-02-28T03:52:16;7.20;98.30
9083;DHT22;4577;48.704;9.000;2024-02-28T03:54:45;7.10;98.00
9083;DHT22;4577;48.704;9.000;2024-02-28T03:57:11;7.30;97.60
9083;DHT22;4577;48.704;9.000;2024-02-28T03:59:36;7.20;98.30
9083;DHT22;4577;48.704;9.000;2024-02-28T04:02:02;7.00;99.20
9083;DHT22;4577;48.704;9.000;2024-02-28T04:04:28;7.00;98.10
9083;DHT22;4577;48.704;9.000;2024-02-28T04:06:53;6.80;98.20
9083;DHT22;4577;48.704;9.000;2024-02-28T04:11:45;6.70;99.90
9083;DHT22;4577;48.704;9.000;2024-02-28T04:16:41;6.80;99.00
9083;DHT22;4577;48.704;9.000;2024-02-28T04:19:09;6.90;99.90
9083;DHT22;4577;48.704;9.000;2024-02-28T04:21:35;6.80;99.20
9083;DHT22;4577;48.704;9.000;2024-02-28T04:24:01;6.80;99.90
9083;DHT22;4577;48.704;9.000;2024-02-28T04:28:52;6.60;98.90
9083;DHT22;4577;48.704;9.000;2024-02-28T04:36:10;6.60;99.90
9083;DHT22;4577;48.704;9.000;2024-02-28T04:43:28;6.20;99.90
9083;DHT22;4577;48.704;9.000;2024-02-28T04:45:54;6.00;99.90
9083;DHT22;4577;48.704;9.000;2024-02-28T04:48:20;6.60;99.90
9083;DHT22;4577;48.704;9.000;2024-02-28T04:55:38;7.30;99.90
9083;DHT22;4577;48.704;9.000;2024-02-28T04:58:04;6.60;99.90
9083;DHT22;4577;48.704;9.000;2024-02-28T05:00:29;6.40;99.90
9083;DHT22;4577;48.704;9.000;2024-02-28T05:02:55;6.50;99.90
9083;DHT22;4577;48.704;9.000;2024-02-28T05:05:21;6.50;99.90
9083;DHT22;4577;48.704;9.000;2024-02-28T05:07:46;6.20;99.90
9083;DHT22;4577;48.704;9.000;2024-02-28T05:10:12;6.00;99.90
9083;DHT22;4577;48.704;9.000;2024-02-28T05:12:38;6.30;99.90
9083;DHT22;4577;48.704;9.000;2024-02-28T05:15:04;6.20;99.90
9083;DHT22;4577;48.704;9.000;2024-02-28T05:17:32;6.40;99.90
9083;DHT22;4577;48.704;9.000;2024-02-28T05:19:58;6.30;99.90
9083;DHT22;4577;48.704;9.000;2024-02-28T05:22:23;6.30;99.90
9083;DHT22;4577;48.704;9.000;2024-02-28T05:24:49;6.10;99.90
9083;DHT22;4577;48.704;9.000;2024-02-28T05:27:15;6.10;99.90
9083;DHT22;4577;48.704;9.000;2024-02-28T05:29:40;6.30;99.90
9083;DHT22;4577;48.704;9.000;2024-02-28T05:32:08;6.90;99.90
9083;DHT22;4577;48.704;9.000;2024-02-28T05:34:34;6.40;99.90
9083;DHT22;4577;48.704;9.000;2024-02-28T05:37:00;6.30;99.90
9083;DHT22;4577;48.704;9.000;2024-02-28T05:39:26;6.40;99.90
9083;DHT22;4577;48.704;9.000;2024-02-28T05:41:54;6.20;99.90
9083;DHT22;4577;48.704;9.000;2024-02-28T05:44:20;6.30;99.90
9083;DHT22;4577;48.704;9.000;2024-02-28T05:46:46;6.00;99.90
9083;DHT22;4577;48.704;9.000;2024-02-28T05:49:11;6.20;99.90
9083;DHT22;4577;48.704;9.000;2024-02-28T05:51:37;6.30;99.90
9083;DHT22;4577;48.704;9.000;2024-02-28T05:54:03;5.90;99.90
9083;DHT22;4577;48.704;9.000;2024-02-28T05:56:29;6.20;99.90
9083;DHT22;4577;48.704;9.000;2024-02-28T05:58:55;6.00;99.90
9083;DHT22;4577;48.704;9.000;2024-02-28T06:01:21;5.90;99.90
9083;DHT22;4577;48.704;9.000;2024-02-28T06:03:50;6.10;99.90
9083;DHT22;4577;48.704;9.000;2024-02-28T06:06:16;6.00;99.90
9083;DHT22;4577;48.704;9.000;2024-02-28T06:08:43;6.10;99.90
9083;DHT22;4577;48.704;9.000;2024-02-28T06:11:09;6.10;99.90
9083;DHT22;4577;48.704;9.000;2024-02-28T06:13:35;5.80;99.90
9083;DHT22;4577;48.704;9.000;2024-02-28T06:16:01;6.10;99.90
9083;DHT22;4577;48.704;9.000;2024-02-28T06:18:28;6.20;99.90
9083;DHT22;4577;48.704;9.000;2024-02-28T06:20:55;6.70;99.90
9083;DHT22;4577;48.704;9.000;2024-02-28T06:23:22;6.20;99.90
9083;DHT22;4577;48.704;9.000;2024-02-28T06:25:48;6.20;99.90
9083;DHT22;4577;48.704;9.000;2024-02-28T06:28:14;6.10;99.90
9083;DHT22;4577;48.704;9.000;2024-02-28T06:30:40;6.10;99.90
9083;DHT22;4577;48.704;9.000;2024-02-28T06:33:06;6.20;99.90
9083;DHT22;4577;48.704;9.000;2024-02-28T06:35:34;6.10;99.90
9083;DHT22;4577;48.704;9.000;2024-02-28T06:38:00;6.20;99.90
9083;DHT22;4577;48.704;9.000;2024-02-28T06:40:25;6.30;99.90
9083;DHT22;4577;48.704;9.000;2024-02-28T06:42:51;6.20;99.90
9083;DHT22;4577;48.704;9.000;2024-02-28T06:45:17;6.10;99.90
9083;DHT22;4577;48.704;9.000;2024-02-28T06:47:43;6.20;99.90
9083;DHT22;4577;48.704;9.000;2024-02-28T06:50:10;6.30;99.90
9083;DHT22;4577;48.704;9.000;2024-02-28T06:52:36;6.10;99.90
9083;DHT22;4577;48.704;9.000;2024-02-28T06:55:02;6.10;99.90
9083;DHT22;4577;48.704;9.000;2024-02-28T06:57:39;6.70;99.90
9083;DHT22;4577;48.704;9.000;2024-02-28T07:00:09;6.20;99.90
9083;DHT22;4577;48.704;9.000;2024-02-28T07:02:35;6.30;99.90
9083;DHT22;4577;48.704;9.000;2024-02-28T07:05:02;6.40;99.90
9083;DHT22;4577;48.704;9.000;2024-02-28T07:07:30;6.60;99.90
9083;DHT22;4577;48.704;9.000;2024-02-28T07:09:56;6.80;99.90
9083;DHT22;4577;48.704;9.000;2024-02-28T07:12:22;6.80;99.90
9083;DHT22;4577;48.704;9.000;2024-02-28T07:14:47;7.00;99.90
9083;DHT22;4577;48.704;9.000;2024-02-28T07:17:13;7.00;99.20
9083;DHT22;4577;48.704;9.000;2024-02-28T07:19:39;7.20;98.70
9083;DHT22;4577;48.704;9.000;2024-02-28T07:22:04;7.20;98.70
9083;DHT22;4577;48.704;9.000;2024-02-28T07:24:31;7.00;99.50
9083;DHT22;4577;48.704;9.000;2024-02-28T07:26:57;7.10;97.70
9083;DHT22;4577;48.704;9.000;2024-02-28T07:29:23;7.10;97.70
9083;DHT22;4577;48.704;9.000;2024-02-28T07:31:50;7.20;99.30
9083;DHT22;4577;48.704;9.000;2024-02-28T07:34:15;7.20;97.70
9083;DHT22;4577;48.704;9.000;2024-02-28T07:36:41;7.20;97.80
9083;DHT22;4577;48.704;9.000;2024-02-28T07:39:07;7.20;97.70
9083;DHT22;4577;48.704;9.000;2024-02-28T07:41:34;7.50;99.70
9083;DHT22;4577;48.704;9.000;2024-02-28T07:44:00;7.20;97.50
9083;DHT22;4577;48.704;9.000;2024-02-28T07:46:26;7.30;96.70
9083;DHT22;4577;48.704;9.000;2024-02-28T07:48:51;7.40;98.70
9083;DHT22;4577;48.704;9.000;2024-02-28T07:51:17;7.30;96.90
9083;DHT22;4577;48.704;9.000;2024-02-28T07:53:43;7.30;96.90
9083;DHT22;4577;48.704;9.000;2024-02-28T07:56:18;7.20;98.10
9083;DHT22;4577;48.704;9.000;2024-02-28T07:58:44;7.30;96.50
9083;DHT22;4577;48.704;9.000;2024-02-28T08:01:11;7.30;96.30
9083;DHT22;4577;48.704;9.000;2024-02-28T08:03:36;7.30;96.10
9083;DHT22;4577;48.704;9.000;2024-02-28T08:06:02;7.30;97.50
9083;DHT22;4577;48.704;9.000;2024-02-28T08:08:28;8.20;96.60
9083;DHT22;4577;48.704;9.000;2024-02-28T08:10:54;7.10;97.70
9083;DHT22;4577;48.704;9.000;2024-02-28T08:13:20;7.30;95.70
9083;DHT22;4577;48.704;9.000;2024-02-28T08:15:46;6.80;95.80
9083;DHT22;4577;48.704;9.000;2024-02-28T08:18:12;7.00;95.70
9083;DHT22;4577;48.704;9.000;2024-02-28T08:20:38;7.00;96.10
9083;DHT22;4577;48.704;9.000;2024-02-28T08:23:04;7.10;96.30
9083;DHT22;4577;48.704;9.000;2024-02-28T08:25:30;7.20;97.10
9083;DHT22;4577;48.704;9.000;2024-02-28T08:27:56;7.10;95.50
9083;DHT22;4577;48.704;9.000;2024-02-28T08:30:22;7.20;96.00
9083;DHT22;4577;48.704;9.000;2024-02-28T08:32:48;7.20;97.70
9083;DHT22;4577;48.704;9.000;2024-02-28T08:35:13;7.40;95.80
9083;DHT22;4577;48.704;9.000;2024-02-28T08:37:39;7.40;95.20
9083;DHT22;4577;48.704;9.000;2024-02-28T08:40:06;7.40;95.50
9083;DHT22;4577;48.704;9.000;2024-02-28T08:42:32;7.40;95.50
9083;DHT22;4577;48.704;9.000;2024-02-28T08:44:57;7.50;95.80
9083;DHT22;4577;48.704;9.000;2024-02-28T08:47:25;7.50;94.80
9083;DHT22;4577;48.704;9.000;2024-02-28T08:49:52;7.50;95.00
9083;DHT22;4577;48.704;9.000;2024-02-28T08:52:18;7.10;94.30
9083;DHT22;4577;48.704;9.000;2024-02-28T08:54:43;7.10;94.70
9083;DHT22;4577;48.704;9.000;2024-02-28T08:57:09;7.00;94.70
9083;DHT22;4577;48.704;9.000;2024-02-28T08:59:35;6.80;95.00
9083;DHT22;4577;48.704;9.000;2024-02-28T09:02:00;6.80;95.20
9083;DHT22;4577;48.704;9.000;2024-02-28T09:04:26;6.80;95.10
9083;DHT22;4577;48.704;9.000;2024-02-28T09:06:51;6.80;95.40
9083;DHT22;4577;48.704;9.000;2024-02-28T09:09:20;6.90;95.70
9083;DHT22;4577;48.704;9.000;2024-02-28T09:11:46;7.10;95.50
9083;DHT22;4577;48.704;9.000;2024-02-28T09:14:11;7.10;95.30
9083;DHT22;4577;48.704;9.000;2024-02-28T09:16:37;7.10;95.00
9083;DHT22;4577;48.704;9.000;2024-02-28T09:19:04;7.30;97.00
9083;DHT22;4577;48.704;9.000;2024-02-28T09:21:30;7.30;95.40
9083;DHT22;4577;48.704;9.000;2024-02-28T09:23:56;7.40;95.20
9083;DHT22;4577;48.704;9.000;2024-02-28T09:26:21;7.40;94.50
9083;DHT22;4577;48.704;9.000;2024-02-28T09:28:47;7.50;94.70
9083;DHT22;4577;48.704;9.000;2024-02-28T09:31:13;7.50;94.40
9083;DHT22;4577;48.704;9.000;2024-02-28T09:33:40;7.30;96.10
9083;DHT22;4577;48.704;9.000;2024-02-28T09:36:07;7.50;94.40
9083;DHT22;4577;48.704;9.000;2024-02-28T09:38:32;7.60;94.60
9083;DHT22;4577;48.704;9.000;2024-02-28T09:41:00;7.60;94.10
9083;DHT22;4577;48.704;9.000;2024-02-28T09:43:31;7.60;93.90
9083;DHT22;4577;48.704;9.000;2024-02-28T09:46:03;7.60;94.10
9083;DHT22;4577;48.704;9.000;2024-02-28T09:48:30;7.70;94.10
9083;DHT22;4577;48.704;9.000;2024-02-28T09:50:57;7.70;94.60
9083;DHT22;4577;48.704;9.000;2024-02-28T09:53:23;7.80;96.00
9083;DHT22;4577;48.704;9.000;2024-02-28T09:55:52;7.80;93.90
9083;DHT22;4577;48.704;9.000;2024-02-28T09:58:19;7.90;96.10
9083;DHT22;4577;48.704;9.000;2024-02-28T10:00:47;7.80;94.20
9083;DHT22;4577;48.704;9.000;2024-02-28T10:03:16;7.90;94.20
9083;DHT22;4577;48.704;9.000;2024-02-28T10:05:45;7.80;93.80
9083;DHT22;4577;48.704;9.000;2024-02-28T10:10:38;7.60;93.60
9083;DHT22;4577;48.704;9.000;2024-02-28T10:13:09;7.40;93.90
9083;DHT22;4577;48.704;9.000;2024-02-28T10:15:35;7.40;94.30
9083;DHT22;4577;48.704;9.000;2024-02-28T10:18:00;7.60;94.50
9083;DHT22;4577;48.704;9.000;2024-02-28T10:20:26;7.70;94.10
9083;DHT22;4577;48.704;9.000;2024-02-28T10:22:52;7.90;94.30
9083;DHT22;4577;48.704;9.000;2024-02-28T10:25:19;7.70;95.20
9083;DHT22;4577;48.704;9.000;2024-02-28T10:27:46;7.90;93.10
9083;DHT22;4577;48.704;9.000;2024-02-28T10:30:12;7.80;92.90
9083;DHT22;4577;48.704;9.000;2024-02-28T10:32:51;8.10;94.90
9083;DHT22;4577;48.704;9.000;2024-02-28T10:35:20;8.00;93.30
9083;DHT22;4577;48.704;9.000;2024-02-28T10:37:47;8.10;92.90
9083;DHT22;4577;48.704;9.000;2024-02-28T10:40:16;8.10;94.70
9083;DHT22;4577;48.704;9.000;2024-02-28T10:42:42;8.30;93.20
9083;DHT22;4577;48.704;9.000;2024-02-28T10:45:12;8.50;93.30
9083;DHT22;4577;48.704;9.000;2024-02-28T10:47:41;8.40;92.80
9083;DHT22;4577;48.704;9.000;2024-02-28T10:50:07;8.50;92.70
9083;DHT22;4577;48.704;9.000;2024-02-28T10:52:34;8.50;92.30
9083;DHT22;4577;48.704;9.000;2024-02-28T10:55:02;8.50;92.10
9083;DHT22;4577;48.704;9.000;2024-02-28T10:57:29;8.50;91.80
9083;DHT22;4577;48.704;9.000;2024-02-28T10:59:57;8.40;92.10
9083;DHT22;4577;48.704;9.000;2024-02-28T11:02:24;8.40;91.90
9083;DHT22;4577;48.704;9.000;2024-02-28T11:04:54;7.80;91.30
9083;DHT22;4577;48.704;9.000;2024-02-28T11:07:20;7.90;91.60
9083;DHT22;4577;48.704;9.000;2024-02-28T11:09:47;8.20;91.70
9083;DHT22;4577;48.704;9.000;2024-02-28T11:12:27;8.20;91.80
9083;DHT22;4577;48.704;9.000;2024-02-28T11:15:03;8.00;91.50
9083;DHT22;4577;48.704;9.000;2024-02-28T11:17:30;8.20;92.20
9083;DHT22;4577;48.704;9.000;2024-02-28T11:19:56;7.90;93.60
9083;DHT22;4577;48.704;9.000;2024-02-28T11:22:22;8.40;92.00
9083;DHT22;4577;48.704;9.000;2024-02-28T11:24:48;8.50;91.80
9083;DHT22;4577;48.704;9.000;2024-02-28T11:27:16;8.50;91.30
9083;DHT22;4577;48.704;9.000;2024-02-28T11:29:42;8.50;91.50
9083;DHT22;4577;48.704;9.000;2024-02-28T11:32:10;10.70;92.10
9083;DHT22;4577;48.704;9.000;2024-02-28T11:34:37;7.60;94.30
9083;DHT22;4577;48.704;9.000;2024-02-28T11:37:06;7.70;94.30
9083;DHT22;4577;48.704;9.000;2024-02-28T11:39:31;7.30;94.30
9083;DHT22;4577;48.704;9.000;2024-02-28T11:42:14;7.40;92.40
9083;DHT22;4577;48.704;9.000;2024-02-28T11:44:41;7.40;92.90
9083;DHT22;4577;48.704;9.000;2024-02-28T11:47:09;7.50;95.30
9083;DHT22;4577;48.704;9.000;2024-02-28T11:49:38;7.30;93.80
9083;DHT22;4577;48.704;9.000;2024-02-28T11:52:05;7.20;94.80
9083;DHT22;4577;48.704;9.000;2024-02-28T11:54:31;7.20;93.70
9083;DHT22;4577;48.704;9.000;2024-02-28T11:56:57;7.40;94.70
9083;DHT22;4577;48.704;9.000;2024-02-28T11:59:23;7.40;93.80
9083;DHT22;4577;48.704;9.000;2024-02-28T12:01:48;7.40;93.20
9083;DHT22;4577;48.704;9.000;2024-02-28T12:04:16;7.40;93.30
9083;DHT22;4577;48.704;9.000;2024-02-28T12:06:41;7.40;93.60
9083;DHT22;4577;48.704;9.000;2024-02-28T12:09:09;7.20;95.40
9083;DHT22;4577;48.704;9.000;2024-02-28T12:11:36;7.20;93.20
9083;DHT22;4577;48.704;9.000;2024-02-28T12:14:08;7.60;95.70
9083;DHT22;4577;48.704;9.000;2024-02-28T12:16:38;7.20;93.60
9083;DHT22;4577;48.704;9.000;2024-02-28T12:19:07;7.20;95.30
9083;DHT22;4577;48.704;9.000;2024-02-28T12:21:33;7.30;93.50
9083;DHT22;4577;48.704;9.000;2024-02-28T12:23:59;7.50;95.20
9083;DHT22;4577;48.704;9.000;2024-02-28T12:26:24;7.80;95.10
9083;DHT22;4577;48.704;9.000;2024-02-28T12:28:50;7.50;94.50
9083;DHT22;4577;48.704;9.000;2024-02-28T12:31:16;7.70;92.60
9083;DHT22;4577;48.704;9.000;2024-02-28T12:33:41;7.80;92.30
9083;DHT22;4577;48.704;9.000;2024-02-28T12:36:07;7.60;93.90
9083;DHT22;4577;48.704;9.000;2024-02-28T12:38:33;7.50;93.90
9083;DHT22;4577;48.704;9.000;2024-02-28T12:40:59;7.80;94.60
9083;DHT22;4577;48.704;9.000;2024-02-28T12:43:24;8.00;94.40
9083;DHT22;4577;48.704;9.000;2024-02-28T12:45:53;7.90;93.40
9083;DHT22;4577;48.704;9.000;2024-02-28T12:48:19;7.80;91.80
9083;DHT22;4577;48.704;9.000;2024-02-28T12:50:44;7.80;91.90
9083;DHT22;4577;48.704;9.000;2024-02-28T12:53:10;7.90;91.90
9083;DHT22;4577;48.704;9.000;2024-02-28T12:55:36;8.00;91.70
9083;DHT22;4577;48.704;9.000;2024-02-28T12:58:01;8.20;92.30
9083;DHT22;4577;48.704;9.000;2024-02-28T13:00:30;8.30;91.80
9083;DHT22;4577;48.704;9.000;2024-02-28T13:02:55;8.40;92.10
9083;DHT22;4577;48.704;9.000;2024-02-28T13:05:21;8.40;91.60
9083;DHT22;4577;48.704;9.000;2024-02-28T13:07:47;8.30;91.50
9083;DHT22;4577;48.704;9.000;2024-02-28T13:10:12;8.30;91.70
9083;DHT22;4577;48.704;9.000;2024-02-28T13:12:38;8.40;91.70
9083;DHT22;4577;48.704;9.000;2024-02-28T13:15:05;8.30;91.50
9083;DHT22;4577;48.704;9.000;2024-02-28T13:17:31;8.20;91.30
9083;DHT22;4577;48.704;9.000;2024-02-28T13:19:57;8.10;92.00
9083;DHT22;4577;48.704;9.000;2024-02-28T13:22:22;8.20;91.80
9083;DHT22;4577;48.704;9.000;2024-02-28T13:24:48;8.20;92.10
9083;DHT22;4577;48.704;9.000;2024-02-28T13:27:14;8.30;92.20
9083;DHT22;4577;48.704;9.000;2024-02-28T13:29:39;8.10;91.70
9083;DHT22;4577;48.704;9.000;2024-02-28T13:32:05;8.20;92.40
9083;DHT22;4577;48.704;9.000;2024-02-28T13:34:31;8.00;94.30
9083;DHT22;4577;48.704;9.000;2024-02-28T13:36:57;7.80;94.20
9083;DHT22;4577;48.704;9.000;2024-02-28T13:39:23;7.90;94.40
9083;DHT22;4577;48.704;9.000;2024-02-28T13:41:52;7.50;94.40
9083;DHT22;4577;48.704;9.000;2024-02-28T13:44:18;7.30;92.40
9083;DHT22;4577;48.704;9.000;2024-02-28T13:46:47;7.40;94.60
9083;DHT22;4577;48.704;9.000;2024-02-28T13:49:13;7.50;92.90
9083;DHT22;4577;48.704;9.000;2024-02-28T13:51:42;7.70;92.60
9083;DHT22;4577;48.704;9.000;2024-02-28T13:54:08;7.90;92.50
9083;DHT22;4577;48.704;9.000;2024-02-28T13:56:33;8.40;94.00
9083;DHT22;4577;48.704;9.000;2024-02-28T13:58:59;8.20;92.30
9083;DHT22;4577;48.704;9.000;2024-02-28T14:01:25;8.00;93.40
9083;DHT22;4577;48.704;9.000;2024-02-28T14:03:51;7.90;91.70
9083;DHT22;4577;48.704;9.000;2024-02-28T14:06:16;7.50;91.90
9083;DHT22;4577;48.704;9.000;2024-02-28T14:08:42;7.80;92.20
9083;DHT22;4577;48.704;9.000;2024-02-28T14:11:08;7.60;92.30
9083;DHT22;4577;48.704;9.000;2024-02-28T14:13:33;7.20;94.90
9083;DHT22;4577;48.704;9.000;2024-02-28T14:15:59;7.40;95.00
9083;DHT22;4577;48.704;9.000;2024-02-28T14:18:25;7.40;93.00
9083;DHT22;4577;48.704;9.000;2024-02-28T14:20:50;7.00;95.00
9083;DHT22;4577;48.704;9.000;2024-02-28T14:23:16;7.40;94.90
9083;DHT22;4577;48.704;9.000;2024-02-28T14:25:43;7.50;92.80
9083;DHT22;4577;48.704;9.000;2024-02-28T14:28:09;7.50;92.80
9083;DHT22;4577;48.704;9.000;2024-02-28T14:30:35;7.80;94.70
9083;DHT22;4577;48.704;9.000;2024-02-28T14:33:01;7.60;92.90
9083;DHT22;4577;48.704;9.000;2024-02-28T14:35:27;8.70;94.70
9083;DHT22;4577;48.704;9.000;2024-02-28T14:37:53;8.00;92.70
9083;DHT22;4577;48.704;9.000;2024-02-28T14:40:19;8.10;92.60
9083;DHT22;4577;48.704;9.000;2024-02-28T14:42:45;8.00;92.20
9083;DHT22;4577;48.704;9.000;2024-02-28T14:45:12;7.90;92.20
9083;DHT22;4577;48.704;9.000;2024-02-28T14:47:39;7.90;92.40
9083;DHT22;4577;48.704;9.000;2024-02-28T14:50:06;8.10;92.60
9083;DHT22;4577;48.704;9.000;2024-02-28T14:52:38;8.00;92.20
9083;DHT22;4577;48.704;9.000;2024-02-28T14:55:08;8.00;94.30
9083;DHT22;4577;48.704;9.000;2024-02-28T14:57:36;8.00;92.30
9083;DHT22;4577;48.704;9.000;2024-02-28T15:00:02;8.10;93.60
9083;DHT22;4577;48.704;9.000;2024-02-28T15:02:36;8.20;92.30
9083;DHT22;4577;48.704;9.000;2024-02-28T15:05:02;7.90;91.80
9083;DHT22;4577;48.704;9.000;2024-02-28T15:07:32;7.70;91.80
9083;DHT22;4577;48.704;9.000;2024-02-28T15:09:58;7.40;94.00
9083;DHT22;4577;48.704;9.000;2024-02-28T15:12:28;7.40;94.50
9083;DHT22;4577;48.704;9.000;2024-02-28T15:14:55;7.20;94.00
9083;DHT22;4577;48.704;9.000;2024-02-28T15:17:21;7.60;94.30
9083;DHT22;4577;48.704;9.000;2024-02-28T15:19:47;7.40;93.60
9083;DHT22;4577;48.704;9.000;2024-02-28T15:22:13;7.60;92.20
9083;DHT22;4577;48.704;9.000;2024-02-28T15:24:39;7.80;92.40
9083;DHT22;4577;48.704;9.000;2024-02-28T15:27:08;7.90;92.40
9083;DHT22;4577;48.704;9.000;2024-02-28T15:29:34;8.00;92.40
9083;DHT22;4577;48.704;9.000;2024-02-28T15:32:00;8.10;92.40
9083;DHT22;4577;48.704;9.000;2024-02-28T15:34:26;8.20;92.30
9083;DHT22;4577;48.704;9.000;2024-02-28T15:36:53;8.00;93.10
9083;DHT22;4577;48.704;9.000;2024-02-28T15:39:18;8.20;91.50
9083;DHT22;4577;48.704;9.000;2024-02-28T15:41:44;8.00;91.50
9083;DHT22;4577;48.704;9.000;2024-02-28T15:44:10;8.00;91.70
9083;DHT22;4577;48.704;9.000;2024-02-28T15:46:35;8.10;92.10
9083;DHT22;4577;48.704;9.000;2024-02-28T15:49:03;8.10;93.40
9083;DHT22;4577;48.704;9.000;2024-02-28T15:51:32;8.40;93.70
9083;DHT22;4577;48.704;9.000;2024-02-28T15:53:58;8.20;91.90
9083;DHT22;4577;48.704;9.000;2024-02-28T15:56:25;7.50;91.00
9083;DHT22;4577;48.704;9.000;2024-02-28T15:58:50;8.00;91.40
9083;DHT22;4577;48.704;9.000;2024-02-28T16:01:16;8.10;93.30
9083;DHT22;4577;48.704;9.000;2024-02-28T16:03:42;5.10;90.40
9083;DHT22;4577;48.704;9.000;2024-02-28T16:06:08;8.10;92.80
9083;DHT22;4577;48.704;9.000;2024-02-28T16:08:39;7.90;90.90
9083;DHT22;4577;48.704;9.000;2024-02-28T16:11:09;8.00;93.40
9083;DHT22;4577;48.704;9.000;2024-02-28T16:13:35;7.90;91.60
9083;DHT22;4577;48.704;9.000;2024-02-28T16:16:01;7.90;92.70
9083;DHT22;4577;48.704;9.000;2024-02-28T16:18:27;7.80;93.00
9083;DHT22;4577;48.704;9.000;2024-02-28T16:20:54;7.90;91.60
9083;DHT22;4577;48.704;9.000;2024-02-28T16:23:20;7.90;91.50
9083;DHT22;4577;48.704;9.000;2024-02-28T16:25:45;7.80;93.40
9083;DHT22;4577;48.704;9.000;2024-02-28T16:28:12;7.80;91.50
9083;DHT22;4577;48.704;9.000;2024-02-28T16:30:38;7.90;91.50
9083;DHT22;4577;48.704;9.000;2024-02-28T16:33:09;7.90;91.50
9083;DHT22;4577;48.704;9.000;2024-02-28T16:35:35;7.90;93.30
9083;DHT22;4577;48.704;9.000;2024-02-28T16:38:01;7.60;93.20
9083;DHT22;4577;48.704;9.000;2024-02-28T16:40:26;7.90;93.50
9083;DHT22;4577;48.704;9.000;2024-02-28T16:42:52;8.10;93.50
9083;DHT22;4577;48.704;9.000;2024-02-28T16:45:18;7.80;91.60
9083;DHT22;4577;48.704;9.000;2024-02-28T16:47:44;7.90;91.80
9083;DHT22;4577;48.704;9.000;2024-02-28T16:50:10;8.00;91.60
9083;DHT22;4577;48.704;9.000;2024-02-28T16:52:36;7.80;91.40
9083;DHT22;4577;48.704;9.000;2024-02-28T16:55:01;7.80;91.60
9083;DHT22;4577;48.704;9.000;2024-02-28T16:57:27;7.80;91.70
9083;DHT22;4577;48.704;9.000;2024-02-28T16:59:53;7.60;93.80
9083;DHT22;4577;48.704;9.000;2024-02-28T17:02:18;7.70;91.90
9083;DHT22;4577;48.704;9.000;2024-02-28T17:04:44;7.70;91.90
9083;DHT22;4577;48.704;9.000;2024-02-28T17:07:10;7.70;91.80
9083;DHT22;4577;48.704;9.000;2024-02-28T17:09:35;7.60;91.90
9083;DHT22;4577;48.704;9.000;2024-02-28T17:12:01;7.70;92.00
9083;DHT22;4577;48.704;9.000;2024-02-28T17:14:27;7.80;91.90